Terminal Aerodrome Forecast
Issued by NWS

Home | Current Version | Previous Version | Text Only | Print | Product List | Glossary On
Versions: 1 2 3 4 5 6 7 8 9 10 11 12 13 14
000
FTUS43 KGRB 292338
TAFMTW
TAF
KMTW 292338Z 3000/3024 17007KT P6SM VCSH SCT035 BKN080
      TEMPO 3003/3005 5SM SHRA BR BKN035
     FM300600 VRB03KT P6SM VCSH SCT015 BKN100
     FM301100 VRB03KT 6SM BR BKN012 BKN035
      TEMPO 3011/3014 4SM BR BKN006
     FM301600 35008KT P6SM BKN015 BKN035
     FM302000 03011KT P6SM BKN025=

USA.gov is the U.S. government's official web portal to all federal, state and local government web resources and services.